<?xml version="1.0" encoding="UTF-8" standalone="no" ?>
<gpx xmlns="http://www.topografix.com/GPX/1/1" xmlns:xsi="http://www.w3.org/2001/XMLSchema-instance" xsi:schemaLocation="http://www.topografix.com/GPX/1/1 http://www.topografix.com/GPX/1/1/gpx.xsd" version="1.1" creator="VisuGPX - https://www.visugpx.com">
  <metadata>
    <name>Observatoire du Cerga, Boucle Gourdon &gt; Cipières par le Cerga</name>
    <desc><![CDATA[Magnifique boucle sur les hauteurs de Gourdon, à travers les plateaux calcaires.]]></desc>
  </metadata>
  <trk>
    <name><![CDATA[ACTIVE LOG 003]]></name>
    <trkseg>
      <trkpt lat="43.72152" lon="6.97438">
        <ele>731.7004395</ele>
        <time>2011-04-13T12:09:22Z</time>
      </trkpt>
      <trkpt lat="43.72256" lon="6.97377">
        <ele>742.7558594</ele>
        <time>2011-04-13T12:10:05Z</time>
      </trkpt>
      <trkpt lat="43.72278" lon="6.9735">
        <ele>746.6010742</ele>
        <time>2011-04-13T12:10:16Z</time>
      </trkpt>
      <trkpt lat="43.72283" lon="6.9725">
        <ele>755.2529297</ele>
        <time>2011-04-13T12:10:46Z</time>
      </trkpt>
      <trkpt lat="43.72295" lon="6.9717">
        <ele>760.5400391</ele>
        <time>2011-04-13T12:11:10Z</time>
      </trkpt>
      <trkpt lat="43.72293" lon="6.96983">
        <ele>771.1147461</ele>
        <time>2011-04-13T12:12:07Z</time>
      </trkpt>
      <trkpt lat="43.72284" lon="6.96785">
        <ele>779.7663574</ele>
        <time>2011-04-13T12:13:09Z</time>
      </trkpt>
      <trkpt lat="43.7231" lon="6.96749">
        <ele>782.1699219</ele>
        <time>2011-04-13T12:13:27Z</time>
      </trkpt>
      <trkpt lat="43.7233" lon="6.96749">
        <ele>784.0925293</ele>
        <time>2011-04-13T12:13:35Z</time>
      </trkpt>
      <trkpt lat="43.72363" lon="6.96789">
        <ele>786.9763184</ele>
        <time>2011-04-13T12:13:54Z</time>
      </trkpt>
      <trkpt lat="43.72415" lon="6.9695">
        <ele>797.0703125</ele>
        <time>2011-04-13T12:14:45Z</time>
      </trkpt>
      <trkpt lat="43.72491" lon="6.97048">
        <ele>802.3574219</ele>
        <time>2011-04-13T12:15:29Z</time>
      </trkpt>
      <trkpt lat="43.72467" lon="6.97157">
        <ele>808.1254883</ele>
        <time>2011-04-13T12:16:03Z</time>
      </trkpt>
      <trkpt lat="43.725" lon="6.9717">
        <ele>809.0866699</ele>
        <time>2011-04-13T12:16:18Z</time>
      </trkpt>
      <trkpt lat="43.72543" lon="6.97113">
        <ele>812.451416</ele>
        <time>2011-04-13T12:16:41Z</time>
      </trkpt>
      <trkpt lat="43.72617" lon="6.96999">
        <ele>820.1418457</ele>
        <time>2011-04-13T12:17:29Z</time>
      </trkpt>
      <trkpt lat="43.72685" lon="6.96849">
        <ele>830.2358398</ele>
        <time>2011-04-13T12:18:25Z</time>
      </trkpt>
      <trkpt lat="43.72711" lon="6.96791">
        <ele>833.6003418</ele>
        <time>2011-04-13T12:18:48Z</time>
      </trkpt>
      <trkpt lat="43.72741" lon="6.96578">
        <ele>844.1750488</ele>
        <time>2011-04-13T12:19:58Z</time>
      </trkpt>
      <trkpt lat="43.72735" lon="6.96305">
        <ele>857.6333008</ele>
        <time>2011-04-13T12:21:22Z</time>
      </trkpt>
      <trkpt lat="43.72743" lon="6.96225">
        <ele>860.517334</ele>
        <time>2011-04-13T12:21:47Z</time>
      </trkpt>
      <trkpt lat="43.72774" lon="6.96154">
        <ele>863.8818359</ele>
        <time>2011-04-13T12:22:12Z</time>
      </trkpt>
      <trkpt lat="43.72835" lon="6.96092">
        <ele>870.611084</ele>
        <time>2011-04-13T12:22:44Z</time>
      </trkpt>
      <trkpt lat="43.72888" lon="6.96058">
        <ele>873.0144043</ele>
        <time>2011-04-13T12:23:08Z</time>
      </trkpt>
      <trkpt lat="43.73167" lon="6.95911">
        <ele>894.644043</ele>
        <time>2011-04-13T12:25:15Z</time>
      </trkpt>
      <trkpt lat="43.73272" lon="6.9581">
        <ele>904.2573242</ele>
        <time>2011-04-13T12:26:10Z</time>
      </trkpt>
      <trkpt lat="43.73352" lon="6.9581">
        <ele>910.5058594</ele>
        <time>2011-04-13T12:26:44Z</time>
      </trkpt>
      <trkpt lat="43.734" lon="6.95799">
        <ele>913.3898926</ele>
        <time>2011-04-13T12:27:06Z</time>
      </trkpt>
      <trkpt lat="43.73387" lon="6.95697">
        <ele>918.677002</ele>
        <time>2011-04-13T12:27:39Z</time>
      </trkpt>
      <trkpt lat="43.73413" lon="6.95635">
        <ele>922.0415039</ele>
        <time>2011-04-13T12:28:00Z</time>
      </trkpt>
      <trkpt lat="43.73443" lon="6.95598">
        <ele>924.9257813</ele>
        <time>2011-04-13T12:28:17Z</time>
      </trkpt>
      <trkpt lat="43.73466" lon="6.95536">
        <ele>928.2902832</ele>
        <time>2011-04-13T12:28:40Z</time>
      </trkpt>
      <trkpt lat="43.73471" lon="6.95364">
        <ele>936.9418945</ele>
        <time>2011-04-13T12:29:37Z</time>
      </trkpt>
      <trkpt lat="43.73484" lon="6.95322">
        <ele>940.3068848</ele>
        <time>2011-04-13T12:29:51Z</time>
      </trkpt>
      <trkpt lat="43.73574" lon="6.95188">
        <ele>948.4777832</ele>
        <time>2011-04-13T12:30:48Z</time>
      </trkpt>
      <trkpt lat="43.73613" lon="6.95153">
        <ele>951.8425293</ele>
        <time>2011-04-13T12:31:09Z</time>
      </trkpt>
      <trkpt lat="43.73617" lon="6.95116">
        <ele>954.7263184</ele>
        <time>2011-04-13T12:31:24Z</time>
      </trkpt>
      <trkpt lat="43.73397" lon="6.95088">
        <ele>970.5881348</ele>
        <time>2011-04-13T12:32:59Z</time>
      </trkpt>
      <trkpt lat="43.73332" lon="6.95169">
        <ele>977.317627</ele>
        <time>2011-04-13T12:33:40Z</time>
      </trkpt>
      <trkpt lat="43.7329" lon="6.95187">
        <ele>980.6821289</ele>
        <time>2011-04-13T12:34:02Z</time>
      </trkpt>
      <trkpt lat="43.73199" lon="6.9517">
        <ele>988.8535156</ele>
        <time>2011-04-13T12:34:44Z</time>
      </trkpt>
      <trkpt lat="43.73181" lon="6.95179">
        <ele>988.8535156</ele>
        <time>2011-04-13T12:35:04Z</time>
      </trkpt>
      <trkpt lat="43.73155" lon="6.95304">
        <ele>995.5825195</ele>
        <time>2011-04-13T12:36:00Z</time>
      </trkpt>
      <trkpt lat="43.73122" lon="6.95339">
        <ele>997.9858398</ele>
        <time>2011-04-13T12:36:22Z</time>
      </trkpt>
      <trkpt lat="43.73138" lon="6.95256">
        <ele>1003.2729492</ele>
        <time>2011-04-13T12:36:55Z</time>
      </trkpt>
      <trkpt lat="43.73124" lon="6.95127">
        <ele>1010.0021973</ele>
        <time>2011-04-13T12:37:42Z</time>
      </trkpt>
      <trkpt lat="43.73142" lon="6.95084">
        <ele>1012.4055176</ele>
        <time>2011-04-13T12:38:01Z</time>
      </trkpt>
      <trkpt lat="43.73229" lon="6.95069">
        <ele>1019.1347656</ele>
        <time>2011-04-13T12:38:44Z</time>
      </trkpt>
      <trkpt lat="43.73273" lon="6.9504">
        <ele>1022.4995117</ele>
        <time>2011-04-13T12:39:09Z</time>
      </trkpt>
      <trkpt lat="43.73386" lon="6.9493">
        <ele>1031.1513672</ele>
        <time>2011-04-13T12:40:17Z</time>
      </trkpt>
      <trkpt lat="43.73517" lon="6.94914">
        <ele>1040.7644043</ele>
        <time>2011-04-13T12:41:16Z</time>
      </trkpt>
      <trkpt lat="43.73603" lon="6.94877">
        <ele>1047.0129395</ele>
        <time>2011-04-13T12:41:56Z</time>
      </trkpt>
      <trkpt lat="43.73646" lon="6.94828">
        <ele>1049.8969727</ele>
        <time>2011-04-13T12:42:20Z</time>
      </trkpt>
      <trkpt lat="43.73698" lon="6.94739">
        <ele>1055.6650391</ele>
        <time>2011-04-13T12:42:54Z</time>
      </trkpt>
      <trkpt lat="43.73734" lon="6.94679">
        <ele>1059.029541</ele>
        <time>2011-04-13T12:43:18Z</time>
      </trkpt>
      <trkpt lat="43.73756" lon="6.94629">
        <ele>1062.394043</ele>
        <time>2011-04-13T12:43:37Z</time>
      </trkpt>
      <trkpt lat="43.73739" lon="6.94572">
        <ele>1065.7587891</ele>
        <time>2011-04-13T12:43:56Z</time>
      </trkpt>
      <trkpt lat="43.73731" lon="6.94538">
        <ele>1067.6811523</ele>
        <time>2011-04-13T12:44:09Z</time>
      </trkpt>
      <trkpt lat="43.73769" lon="6.94502">
        <ele>1071.5266113</ele>
        <time>2011-04-13T12:44:29Z</time>
      </trkpt>
      <trkpt lat="43.73979" lon="6.94557">
        <ele>1085.9465332</ele>
        <time>2011-04-13T12:46:10Z</time>
      </trkpt>
      <trkpt lat="43.73962" lon="6.94638">
        <ele>1091.2336426</ele>
        <time>2011-04-13T12:46:40Z</time>
      </trkpt>
      <trkpt lat="43.73978" lon="6.94655">
        <ele>1091.7143555</ele>
        <time>2011-04-13T12:46:52Z</time>
      </trkpt>
      <trkpt lat="43.74009" lon="6.94608">
        <ele>1094.1176758</ele>
        <time>2011-04-13T12:47:12Z</time>
      </trkpt>
      <trkpt lat="43.74141" lon="6.94586">
        <ele>1105.1728516</ele>
        <time>2011-04-13T12:48:12Z</time>
      </trkpt>
      <trkpt lat="43.74207" lon="6.94566">
        <ele>1106.1340332</ele>
        <time>2011-04-13T12:48:36Z</time>
      </trkpt>
      <trkpt lat="43.74293" lon="6.94552">
        <ele>1101.8083496</ele>
        <time>2011-04-13T12:48:51Z</time>
      </trkpt>
      <trkpt lat="43.7434" lon="6.94579">
        <ele>1098.4433594</ele>
        <time>2011-04-13T12:48:58Z</time>
      </trkpt>
      <trkpt lat="43.74361" lon="6.94618">
        <ele>1097.0014648</ele>
        <time>2011-04-13T12:49:02Z</time>
      </trkpt>
      <trkpt lat="43.74401" lon="6.9463">
        <ele>1093.6369629</ele>
        <time>2011-04-13T12:49:07Z</time>
      </trkpt>
      <trkpt lat="43.74421" lon="6.9458">
        <ele>1092.6757813</ele>
        <time>2011-04-13T12:49:14Z</time>
      </trkpt>
      <trkpt lat="43.74369" lon="6.94421">
        <ele>1087.8691406</ele>
        <time>2011-04-13T12:49:32Z</time>
      </trkpt>
      <trkpt lat="43.74318" lon="6.93892">
        <ele>1083.5429688</ele>
        <time>2011-04-13T12:50:37Z</time>
      </trkpt>
      <trkpt lat="43.74312" lon="6.93822">
        <ele>1080.6591797</ele>
        <time>2011-04-13T12:50:47Z</time>
      </trkpt>
      <trkpt lat="43.74305" lon="6.93564">
        <ele>1082.5817871</ele>
        <time>2011-04-13T12:51:28Z</time>
      </trkpt>
      <trkpt lat="43.74288" lon="6.93421">
        <ele>1080.1784668</ele>
        <time>2011-04-13T12:51:47Z</time>
      </trkpt>
      <trkpt lat="43.74277" lon="6.933">
        <ele>1073.9299316</ele>
        <time>2011-04-13T12:52:01Z</time>
      </trkpt>
      <trkpt lat="43.74274" lon="6.93279">
        <ele>1072.0073242</ele>
        <time>2011-04-13T12:52:03Z</time>
      </trkpt>
      <trkpt lat="43.74221" lon="6.93056">
        <ele>1071.0461426</ele>
        <time>2011-04-13T12:52:27Z</time>
      </trkpt>
      <trkpt lat="43.74212" lon="6.92749">
        <ele>1067.2006836</ele>
        <time>2011-04-13T12:53:05Z</time>
      </trkpt>
      <trkpt lat="43.74207" lon="6.92727">
        <ele>1070.0847168</ele>
        <time>2011-04-13T12:54:14Z</time>
      </trkpt>
      <trkpt lat="43.74166" lon="6.92625">
        <ele>1067.6811523</ele>
        <time>2011-04-13T12:54:39Z</time>
      </trkpt>
      <trkpt lat="43.74159" lon="6.92593">
        <ele>1067.2006836</ele>
        <time>2011-04-13T12:54:45Z</time>
      </trkpt>
      <trkpt lat="43.74168" lon="6.92456">
        <ele>1068.1621094</ele>
        <time>2011-04-13T12:55:10Z</time>
      </trkpt>
      <trkpt lat="43.74203" lon="6.92419">
        <ele>1068.1621094</ele>
        <time>2011-04-13T12:55:19Z</time>
      </trkpt>
      <trkpt lat="43.74215" lon="6.92382">
        <ele>1066.7199707</ele>
        <time>2011-04-13T12:55:26Z</time>
      </trkpt>
      <trkpt lat="43.74172" lon="6.91659">
        <ele>1062.394043</ele>
        <time>2011-04-13T12:57:25Z</time>
      </trkpt>
      <trkpt lat="43.74172" lon="6.91614">
        <ele>1060.4714355</ele>
        <time>2011-04-13T12:57:33Z</time>
      </trkpt>
      <trkpt lat="43.74192" lon="6.91499">
        <ele>1061.4328613</ele>
        <time>2011-04-13T12:57:53Z</time>
      </trkpt>
      <trkpt lat="43.74264" lon="6.91365">
        <ele>1063.3554688</ele>
        <time>2011-04-13T12:58:22Z</time>
      </trkpt>
      <trkpt lat="43.74422" lon="6.91181">
        <ele>1068.6428223</ele>
        <time>2011-04-13T12:59:11Z</time>
      </trkpt>
      <trkpt lat="43.7455" lon="6.91093">
        <ele>1075.8525391</ele>
        <time>2011-04-13T12:59:56Z</time>
      </trkpt>
      <trkpt lat="43.74647" lon="6.91046">
        <ele>1085.9465332</ele>
        <time>2011-04-13T13:00:43Z</time>
      </trkpt>
      <trkpt lat="43.74701" lon="6.91053">
        <ele>1088.8305664</ele>
        <time>2011-04-13T13:01:06Z</time>
      </trkpt>
      <trkpt lat="43.74757" lon="6.91029">
        <ele>1095.0788574</ele>
        <time>2011-04-13T13:01:35Z</time>
      </trkpt>
      <trkpt lat="43.74796" lon="6.91049">
        <ele>1098.9240723</ele>
        <time>2011-04-13T13:01:56Z</time>
      </trkpt>
      <trkpt lat="43.7485" lon="6.91189">
        <ele>1115.2666016</ele>
        <time>2011-04-13T13:03:06Z</time>
      </trkpt>
      <trkpt lat="43.74794" lon="6.9128">
        <ele>1130.6477051</ele>
        <time>2011-04-13T13:04:09Z</time>
      </trkpt>
      <trkpt lat="43.74768" lon="6.91338">
        <ele>1134.4931641</ele>
        <time>2011-04-13T13:04:40Z</time>
      </trkpt>
      <trkpt lat="43.74773" lon="6.91377">
        <ele>1137.857666</ele>
        <time>2011-04-13T13:04:55Z</time>
      </trkpt>
      <trkpt lat="43.74774" lon="6.914">
        <ele>1139.2995605</ele>
        <time>2011-04-13T13:05:07Z</time>
      </trkpt>
      <trkpt lat="43.74762" lon="6.91552">
        <ele>1141.7028809</ele>
        <time>2011-04-13T13:05:53Z</time>
      </trkpt>
      <trkpt lat="43.74801" lon="6.91596">
        <ele>1143.6254883</ele>
        <time>2011-04-13T13:06:12Z</time>
      </trkpt>
      <trkpt lat="43.74851" lon="6.91618">
        <ele>1149.8742676</ele>
        <time>2011-04-13T13:06:41Z</time>
      </trkpt>
      <trkpt lat="43.74899" lon="6.91674">
        <ele>1157.0839844</ele>
        <time>2011-04-13T13:07:21Z</time>
      </trkpt>
      <trkpt lat="43.7493" lon="6.91677">
        <ele>1160.9291992</ele>
        <time>2011-04-13T13:07:39Z</time>
      </trkpt>
      <trkpt lat="43.7495" lon="6.91668">
        <ele>1162.3710938</ele>
        <time>2011-04-13T13:07:51Z</time>
      </trkpt>
      <trkpt lat="43.74957" lon="6.91687">
        <ele>1163.8129883</ele>
        <time>2011-04-13T13:08:01Z</time>
      </trkpt>
      <trkpt lat="43.74939" lon="6.91717">
        <ele>1167.1779785</ele>
        <time>2011-04-13T13:08:19Z</time>
      </trkpt>
      <trkpt lat="43.74925" lon="6.91754">
        <ele>1170.5424805</ele>
        <time>2011-04-13T13:09:18Z</time>
      </trkpt>
      <trkpt lat="43.74977" lon="6.92068">
        <ele>1193.6140137</ele>
        <time>2011-04-13T13:11:49Z</time>
      </trkpt>
      <trkpt lat="43.75001" lon="6.92006">
        <ele>1198.4206543</ele>
        <time>2011-04-13T13:12:20Z</time>
      </trkpt>
      <trkpt lat="43.75009" lon="6.91888">
        <ele>1206.5917969</ele>
        <time>2011-04-13T13:13:10Z</time>
      </trkpt>
      <trkpt lat="43.75013" lon="6.91848">
        <ele>1208.5144043</ele>
        <time>2011-04-13T13:13:27Z</time>
      </trkpt>
      <trkpt lat="43.75026" lon="6.91862">
        <ele>1210.9177246</ele>
        <time>2011-04-13T13:13:38Z</time>
      </trkpt>
      <trkpt lat="43.75041" lon="6.92069">
        <ele>1230.1442871</ele>
        <time>2011-04-13T13:15:04Z</time>
      </trkpt>
      <trkpt lat="43.75065" lon="6.92209">
        <ele>1243.6025391</ele>
        <time>2011-04-13T13:16:05Z</time>
      </trkpt>
      <trkpt lat="43.75078" lon="6.92384">
        <ele>1256.5803223</ele>
        <time>2011-04-13T13:17:16Z</time>
      </trkpt>
      <trkpt lat="43.75094" lon="6.92437">
        <ele>1259.4643555</ele>
        <time>2011-04-13T13:17:38Z</time>
      </trkpt>
      <trkpt lat="43.75133" lon="6.92454">
        <ele>1262.8291016</ele>
        <time>2011-04-13T13:17:59Z</time>
      </trkpt>
      <trkpt lat="43.75237" lon="6.92467">
        <ele>1260.9064941</ele>
        <time>2011-04-13T13:18:38Z</time>
      </trkpt>
      <trkpt lat="43.75305" lon="6.92408">
        <ele>1259.9448242</ele>
        <time>2011-04-13T13:19:07Z</time>
      </trkpt>
      <trkpt lat="43.75327" lon="6.92338">
        <ele>1256.5803223</ele>
        <time>2011-04-13T13:19:23Z</time>
      </trkpt>
      <trkpt lat="43.75342" lon="6.92352">
        <ele>1257.541748</ele>
        <time>2011-04-13T13:19:30Z</time>
      </trkpt>
      <trkpt lat="43.75374" lon="6.92533">
        <ele>1259.9448242</ele>
        <time>2011-04-13T13:23:24Z</time>
      </trkpt>
      <trkpt lat="43.75399" lon="6.92601">
        <ele>1258.5029297</ele>
        <time>2011-04-13T13:23:37Z</time>
      </trkpt>
      <trkpt lat="43.75418" lon="6.92615">
        <ele>1256.5803223</ele>
        <time>2011-04-13T13:23:43Z</time>
      </trkpt>
      <trkpt lat="43.75438" lon="6.92695">
        <ele>1258.5029297</ele>
        <time>2011-04-13T13:23:58Z</time>
      </trkpt>
      <trkpt lat="43.75459" lon="6.92759">
        <ele>1256.5803223</ele>
        <time>2011-04-13T13:24:07Z</time>
      </trkpt>
      <trkpt lat="43.75493" lon="6.92801">
        <ele>1255.1384277</ele>
        <time>2011-04-13T13:24:15Z</time>
      </trkpt>
      <trkpt lat="43.75543" lon="6.92845">
        <ele>1251.7739258</ele>
        <time>2011-04-13T13:24:25Z</time>
      </trkpt>
      <trkpt lat="43.75563" lon="6.92793">
        <ele>1247.447998</ele>
        <time>2011-04-13T13:24:34Z</time>
      </trkpt>
      <trkpt lat="43.75623" lon="6.92772">
        <ele>1248.8898926</ele>
        <time>2011-04-13T13:24:45Z</time>
      </trkpt>
      <trkpt lat="43.75677" lon="6.92858">
        <ele>1245.0446777</ele>
        <time>2011-04-13T13:24:59Z</time>
      </trkpt>
      <trkpt lat="43.75743" lon="6.92899">
        <ele>1243.6025391</ele>
        <time>2011-04-13T13:25:19Z</time>
      </trkpt>
      <trkpt lat="43.75788" lon="6.92902">
        <ele>1239.2766113</ele>
        <time>2011-04-13T13:25:30Z</time>
      </trkpt>
      <trkpt lat="43.75814" lon="6.92954">
        <ele>1237.8347168</ele>
        <time>2011-04-13T13:25:39Z</time>
      </trkpt>
      <trkpt lat="43.75809" lon="6.93086">
        <ele>1237.3540039</ele>
        <time>2011-04-13T13:26:01Z</time>
      </trkpt>
      <trkpt lat="43.75827" lon="6.93123">
        <ele>1234.9509277</ele>
        <time>2011-04-13T13:26:07Z</time>
      </trkpt>
      <trkpt lat="43.75873" lon="6.93184">
        <ele>1224.3762207</ele>
        <time>2011-04-13T13:26:20Z</time>
      </trkpt>
      <trkpt lat="43.75912" lon="6.93209">
        <ele>1216.685791</ele>
        <time>2011-04-13T13:26:34Z</time>
      </trkpt>
      <trkpt lat="43.75934" lon="6.93223">
        <ele>1210.4370117</ele>
        <time>2011-04-13T13:26:41Z</time>
      </trkpt>
      <trkpt lat="43.75972" lon="6.93272">
        <ele>1200.8239746</ele>
        <time>2011-04-13T13:26:53Z</time>
      </trkpt>
      <trkpt lat="43.76098" lon="6.93381">
        <ele>1170.0617676</ele>
        <time>2011-04-13T13:28:32Z</time>
      </trkpt>
      <trkpt lat="43.7616" lon="6.93417">
        <ele>1161.4099121</ele>
        <time>2011-04-13T13:29:17Z</time>
      </trkpt>
      <trkpt lat="43.76144" lon="6.9352">
        <ele>1149.8742676</ele>
        <time>2011-04-13T13:29:36Z</time>
      </trkpt>
      <trkpt lat="43.76158" lon="6.93541">
        <ele>1149.8742676</ele>
        <time>2011-04-13T13:29:41Z</time>
      </trkpt>
      <trkpt lat="43.76161" lon="6.93553">
        <ele>1148.4321289</ele>
        <time>2011-04-13T13:29:43Z</time>
      </trkpt>
      <trkpt lat="43.76148" lon="6.93583">
        <ele>1146.9899902</ele>
        <time>2011-04-13T13:29:48Z</time>
      </trkpt>
      <trkpt lat="43.76157" lon="6.93626">
        <ele>1145.5480957</ele>
        <time>2011-04-13T13:29:55Z</time>
      </trkpt>
      <trkpt lat="43.76176" lon="6.93694">
        <ele>1142.1835938</ele>
        <time>2011-04-13T13:30:14Z</time>
      </trkpt>
      <trkpt lat="43.76166" lon="6.93806">
        <ele>1142.1835938</ele>
        <time>2011-04-13T13:30:40Z</time>
      </trkpt>
      <trkpt lat="43.76186" lon="6.93807">
        <ele>1140.7414551</ele>
        <time>2011-04-13T13:30:58Z</time>
      </trkpt>
      <trkpt lat="43.7619" lon="6.93825">
        <ele>1138.3383789</ele>
        <time>2011-04-13T13:31:04Z</time>
      </trkpt>
      <trkpt lat="43.76142" lon="6.93842">
        <ele>1133.0510254</ele>
        <time>2011-04-13T13:31:25Z</time>
      </trkpt>
      <trkpt lat="43.76142" lon="6.93882">
        <ele>1124.3991699</ele>
        <time>2011-04-13T13:32:01Z</time>
      </trkpt>
      <trkpt lat="43.76159" lon="6.939">
        <ele>1121.034668</ele>
        <time>2011-04-13T13:32:51Z</time>
      </trkpt>
      <trkpt lat="43.76145" lon="6.93961">
        <ele>1118.1506348</ele>
        <time>2011-04-13T13:33:14Z</time>
      </trkpt>
      <trkpt lat="43.76168" lon="6.94003">
        <ele>1119.5927734</ele>
        <time>2011-04-13T13:33:33Z</time>
      </trkpt>
      <trkpt lat="43.76179" lon="6.94041">
        <ele>1116.7087402</ele>
        <time>2011-04-13T13:33:42Z</time>
      </trkpt>
      <trkpt lat="43.76222" lon="6.94105">
        <ele>1113.8244629</ele>
        <time>2011-04-13T13:34:01Z</time>
      </trkpt>
      <trkpt lat="43.76303" lon="6.94214">
        <ele>1102.2888184</ele>
        <time>2011-04-13T13:34:25Z</time>
      </trkpt>
      <trkpt lat="43.76379" lon="6.94244">
        <ele>1102.2888184</ele>
        <time>2011-04-13T13:34:44Z</time>
      </trkpt>
      <trkpt lat="43.76405" lon="6.94251">
        <ele>1099.885498</ele>
        <time>2011-04-13T13:34:54Z</time>
      </trkpt>
      <trkpt lat="43.76406" lon="6.94418">
        <ele>1087.8691406</ele>
        <time>2011-04-13T13:35:49Z</time>
      </trkpt>
      <trkpt lat="43.76474" lon="6.94536">
        <ele>1080.6591797</ele>
        <time>2011-04-13T13:36:29Z</time>
      </trkpt>
      <trkpt lat="43.76475" lon="6.94576">
        <ele>1080.6591797</ele>
        <time>2011-04-13T13:36:41Z</time>
      </trkpt>
      <trkpt lat="43.76466" lon="6.94598">
        <ele>1078.2558594</ele>
        <time>2011-04-13T13:36:50Z</time>
      </trkpt>
      <trkpt lat="43.76487" lon="6.94598">
        <ele>1076.8139648</ele>
        <time>2011-04-13T13:37:01Z</time>
      </trkpt>
      <trkpt lat="43.76511" lon="6.9463">
        <ele>1077.7751465</ele>
        <time>2011-04-13T13:37:12Z</time>
      </trkpt>
      <trkpt lat="43.76529" lon="6.94637">
        <ele>1076.8139648</ele>
        <time>2011-04-13T13:37:18Z</time>
      </trkpt>
      <trkpt lat="43.76627" lon="6.94641">
        <ele>1065.7587891</ele>
        <time>2011-04-13T13:37:58Z</time>
      </trkpt>
      <trkpt lat="43.7666" lon="6.94656">
        <ele>1056.1455078</ele>
        <time>2011-04-13T13:38:28Z</time>
      </trkpt>
      <trkpt lat="43.76673" lon="6.94634">
        <ele>1053.7424316</ele>
        <time>2011-04-13T13:38:37Z</time>
      </trkpt>
      <trkpt lat="43.76678" lon="6.94644">
        <ele>1050.8581543</ele>
        <time>2011-04-13T13:38:45Z</time>
      </trkpt>
      <trkpt lat="43.7677" lon="6.94563">
        <ele>1029.7092285</ele>
        <time>2011-04-13T13:39:41Z</time>
      </trkpt>
      <trkpt lat="43.76765" lon="6.94587">
        <ele>1024.902832</ele>
        <time>2011-04-13T13:39:52Z</time>
      </trkpt>
      <trkpt lat="43.76783" lon="6.9458">
        <ele>1019.6154785</ele>
        <time>2011-04-13T13:40:15Z</time>
      </trkpt>
      <trkpt lat="43.76852" lon="6.94516">
        <ele>1001.8310547</ele>
        <time>2011-04-13T13:40:55Z</time>
      </trkpt>
      <trkpt lat="43.76925" lon="6.94494">
        <ele>984.0466309</ele>
        <time>2011-04-13T13:41:30Z</time>
      </trkpt>
      <trkpt lat="43.77004" lon="6.94443">
        <ele>970.5881348</ele>
        <time>2011-04-13T13:43:14Z</time>
      </trkpt>
      <trkpt lat="43.77178" lon="6.94398">
        <ele>953.2844238</ele>
        <time>2011-04-13T13:44:51Z</time>
      </trkpt>
      <trkpt lat="43.77243" lon="6.94458">
        <ele>945.1132813</ele>
        <time>2011-04-13T13:45:21Z</time>
      </trkpt>
      <trkpt lat="43.77281" lon="6.94452">
        <ele>941.2680664</ele>
        <time>2011-04-13T13:45:30Z</time>
      </trkpt>
      <trkpt lat="43.77286" lon="6.94503">
        <ele>934.0581055</ele>
        <time>2011-04-13T13:45:47Z</time>
      </trkpt>
      <trkpt lat="43.77301" lon="6.94515">
        <ele>930.6936035</ele>
        <time>2011-04-13T13:45:55Z</time>
      </trkpt>
      <trkpt lat="43.77372" lon="6.94504">
        <ele>919.1577148</ele>
        <time>2011-04-13T13:46:25Z</time>
      </trkpt>
      <trkpt lat="43.7739" lon="6.94493">
        <ele>914.8317871</ele>
        <time>2011-04-13T13:46:33Z</time>
      </trkpt>
      <trkpt lat="43.7739" lon="6.9452">
        <ele>910.9865723</ele>
        <time>2011-04-13T13:46:44Z</time>
      </trkpt>
      <trkpt lat="43.774" lon="6.94521">
        <ele>909.0639648</ele>
        <time>2011-04-13T13:46:50Z</time>
      </trkpt>
      <trkpt lat="43.77401" lon="6.94529">
        <ele>906.1796875</ele>
        <time>2011-04-13T13:46:54Z</time>
      </trkpt>
      <trkpt lat="43.77393" lon="6.94544">
        <ele>903.7766113</ele>
        <time>2011-04-13T13:47:01Z</time>
      </trkpt>
      <trkpt lat="43.77407" lon="6.94554">
        <ele>899.9313965</ele>
        <time>2011-04-13T13:47:11Z</time>
      </trkpt>
      <trkpt lat="43.7747" lon="6.94536">
        <ele>887.434082</ele>
        <time>2011-04-13T13:47:50Z</time>
      </trkpt>
      <trkpt lat="43.77507" lon="6.94538">
        <ele>876.3791504</ele>
        <time>2011-04-13T13:48:30Z</time>
      </trkpt>
      <trkpt lat="43.77597" lon="6.94644">
        <ele>848.5007324</ele>
        <time>2011-04-13T13:49:36Z</time>
      </trkpt>
      <trkpt lat="43.77634" lon="6.94724">
        <ele>849.4621582</ele>
        <time>2011-04-13T13:50:01Z</time>
      </trkpt>
      <trkpt lat="43.77664" lon="6.94759">
        <ele>845.6169434</ele>
        <time>2011-04-13T13:50:10Z</time>
      </trkpt>
      <trkpt lat="43.77722" lon="6.94881">
        <ele>841.2907715</ele>
        <time>2011-04-13T13:50:31Z</time>
      </trkpt>
      <trkpt lat="43.77833" lon="6.94923">
        <ele>829.755127</ele>
        <time>2011-04-13T13:50:58Z</time>
      </trkpt>
      <trkpt lat="43.77892" lon="6.95012">
        <ele>826.3903809</ele>
        <time>2011-04-13T13:51:17Z</time>
      </trkpt>
      <trkpt lat="43.77893" lon="6.95014">
        <ele>824.4677734</ele>
        <time>2011-04-13T13:51:23Z</time>
      </trkpt>
      <trkpt lat="43.77874" lon="6.94982">
        <ele>815.8161621</ele>
        <time>2011-04-13T13:51:33Z</time>
      </trkpt>
      <trkpt lat="43.77855" lon="6.95077">
        <ele>815.8161621</ele>
        <time>2011-04-13T13:51:35Z</time>
      </trkpt>
      <trkpt lat="43.77822" lon="6.95083">
        <ele>810.5285645</ele>
        <time>2011-04-13T13:51:39Z</time>
      </trkpt>
      <trkpt lat="43.77802" lon="6.95043">
        <ele>809.0866699</ele>
        <time>2011-04-13T13:51:47Z</time>
      </trkpt>
      <trkpt lat="43.77799" lon="6.95088">
        <ele>806.6833496</ele>
        <time>2011-04-13T13:51:49Z</time>
      </trkpt>
      <trkpt lat="43.77755" lon="6.95099">
        <ele>809.5673828</ele>
        <time>2011-04-13T13:52:04Z</time>
      </trkpt>
      <trkpt lat="43.77656" lon="6.95078">
        <ele>820.6225586</ele>
        <time>2011-04-13T13:53:26Z</time>
      </trkpt>
      <trkpt lat="43.77618" lon="6.94983">
        <ele>814.8547363</ele>
        <time>2011-04-13T13:53:59Z</time>
      </trkpt>
      <trkpt lat="43.77551" lon="6.94954">
        <ele>830.7165527</ele>
        <time>2011-04-13T13:55:12Z</time>
      </trkpt>
      <trkpt lat="43.77551" lon="6.94954">
        <ele>833.6003418</ele>
        <time>2011-04-13T13:55:39Z</time>
      </trkpt>
      <trkpt lat="43.7752" lon="6.94958">
        <ele>833.6003418</ele>
        <time>2011-04-13T13:55:44Z</time>
      </trkpt>
      <trkpt lat="43.77437" lon="6.94993">
        <ele>848.0202637</ele>
        <time>2011-04-13T13:58:16Z</time>
      </trkpt>
      <trkpt lat="43.77339" lon="6.95058">
        <ele>850.9040527</ele>
        <time>2011-04-13T13:59:29Z</time>
      </trkpt>
      <trkpt lat="43.77263" lon="6.95043">
        <ele>851.8654785</ele>
        <time>2011-04-13T14:00:09Z</time>
      </trkpt>
      <trkpt lat="43.77193" lon="6.95">
        <ele>850.9040527</ele>
        <time>2011-04-13T14:00:43Z</time>
      </trkpt>
      <trkpt lat="43.77135" lon="6.94995">
        <ele>869.6499023</ele>
        <time>2011-04-13T14:02:36Z</time>
      </trkpt>
      <trkpt lat="43.77074" lon="6.95023">
        <ele>872.5336914</ele>
        <time>2011-04-13T14:03:03Z</time>
      </trkpt>
      <trkpt lat="43.77007" lon="6.95087">
        <ele>874.4562988</ele>
        <time>2011-04-13T14:04:57Z</time>
      </trkpt>
      <trkpt lat="43.76915" lon="6.95116">
        <ele>863.8818359</ele>
        <time>2011-04-13T14:05:37Z</time>
      </trkpt>
      <trkpt lat="43.76729" lon="6.95255">
        <ele>858.5944824</ele>
        <time>2011-04-13T14:07:06Z</time>
      </trkpt>
      <trkpt lat="43.76696" lon="6.95259">
        <ele>868.6884766</ele>
        <time>2011-04-13T14:08:04Z</time>
      </trkpt>
      <trkpt lat="43.76663" lon="6.95263">
        <ele>875.4174805</ele>
        <time>2011-04-13T14:09:06Z</time>
      </trkpt>
      <trkpt lat="43.76633" lon="6.95275">
        <ele>876.8598633</ele>
        <time>2011-04-13T14:09:36Z</time>
      </trkpt>
      <trkpt lat="43.76631" lon="6.95264">
        <ele>880.7050781</ele>
        <time>2011-04-13T14:09:57Z</time>
      </trkpt>
      <trkpt lat="43.76532" lon="6.95307">
        <ele>892.2409668</ele>
        <time>2011-04-13T14:11:47Z</time>
      </trkpt>
      <trkpt lat="43.76535" lon="6.95363">
        <ele>889.3566895</ele>
        <time>2011-04-13T14:12:02Z</time>
      </trkpt>
      <trkpt lat="43.76519" lon="6.95397">
        <ele>892.2409668</ele>
        <time>2011-04-13T14:12:16Z</time>
      </trkpt>
      <trkpt lat="43.765" lon="6.95426">
        <ele>891.2792969</ele>
        <time>2011-04-13T14:12:31Z</time>
      </trkpt>
      <trkpt lat="43.76474" lon="6.95443">
        <ele>889.8374023</ele>
        <time>2011-04-13T14:12:45Z</time>
      </trkpt>
      <trkpt lat="43.7633" lon="6.9544">
        <ele>890.3181152</ele>
        <time>2011-04-13T14:13:49Z</time>
      </trkpt>
      <trkpt lat="43.76311" lon="6.95468">
        <ele>896.0861816</ele>
        <time>2011-04-13T14:14:17Z</time>
      </trkpt>
      <trkpt lat="43.76261" lon="6.95516">
        <ele>907.1411133</ele>
        <time>2011-04-13T14:15:49Z</time>
      </trkpt>
      <trkpt lat="43.76141" lon="6.95698">
        <ele>933.5773926</ele>
        <time>2011-04-13T14:18:42Z</time>
      </trkpt>
      <trkpt lat="43.76119" lon="6.95725">
        <ele>937.9033203</ele>
        <time>2011-04-13T14:19:14Z</time>
      </trkpt>
      <trkpt lat="43.76064" lon="6.95794">
        <ele>945.5939941</ele>
        <time>2011-04-13T14:20:17Z</time>
      </trkpt>
      <trkpt lat="43.75981" lon="6.95829">
        <ele>962.8977051</ele>
        <time>2011-04-13T14:22:05Z</time>
      </trkpt>
      <trkpt lat="43.75929" lon="6.95834">
        <ele>970.1074219</ele>
        <time>2011-04-13T14:23:07Z</time>
      </trkpt>
      <trkpt lat="43.75924" lon="6.95849">
        <ele>971.5493164</ele>
        <time>2011-04-13T14:23:24Z</time>
      </trkpt>
      <trkpt lat="43.75901" lon="6.95833">
        <ele>977.7980957</ele>
        <time>2011-04-13T14:23:58Z</time>
      </trkpt>
      <trkpt lat="43.7591" lon="6.95884">
        <ele>983.0852051</ele>
        <time>2011-04-13T14:24:52Z</time>
      </trkpt>
      <trkpt lat="43.75937" lon="6.95929">
        <ele>984.5273438</ele>
        <time>2011-04-13T14:25:24Z</time>
      </trkpt>
      <trkpt lat="43.75925" lon="6.95987">
        <ele>989.8146973</ele>
        <time>2011-04-13T14:26:03Z</time>
      </trkpt>
      <trkpt lat="43.75919" lon="6.96015">
        <ele>989.8146973</ele>
        <time>2011-04-13T14:26:26Z</time>
      </trkpt>
      <trkpt lat="43.75902" lon="6.96048">
        <ele>985.0080566</ele>
        <time>2011-04-13T14:26:41Z</time>
      </trkpt>
      <trkpt lat="43.75812" lon="6.96153">
        <ele>973.9528809</ele>
        <time>2011-04-13T14:27:07Z</time>
      </trkpt>
      <trkpt lat="43.75776" lon="6.96171">
        <ele>973.4724121</ele>
        <time>2011-04-13T14:27:14Z</time>
      </trkpt>
      <trkpt lat="43.75768" lon="6.96175">
        <ele>972.5109863</ele>
        <time>2011-04-13T14:27:16Z</time>
      </trkpt>
      <trkpt lat="43.75707" lon="6.96262">
        <ele>970.5881348</ele>
        <time>2011-04-13T14:27:35Z</time>
      </trkpt>
      <trkpt lat="43.7561" lon="6.96413">
        <ele>960.4943848</ele>
        <time>2011-04-13T14:28:03Z</time>
      </trkpt>
      <trkpt lat="43.75603" lon="6.96457">
        <ele>960.0136719</ele>
        <time>2011-04-13T14:28:10Z</time>
      </trkpt>
      <trkpt lat="43.75627" lon="6.96512">
        <ele>957.1298828</ele>
        <time>2011-04-13T14:28:20Z</time>
      </trkpt>
      <trkpt lat="43.75648" lon="6.96519">
        <ele>956.6491699</ele>
        <time>2011-04-13T14:28:24Z</time>
      </trkpt>
      <trkpt lat="43.75668" lon="6.96491">
        <ele>956.168457</ele>
        <time>2011-04-13T14:28:31Z</time>
      </trkpt>
      <trkpt lat="43.75692" lon="6.96514">
        <ele>956.168457</ele>
        <time>2011-04-13T14:28:38Z</time>
      </trkpt>
      <trkpt lat="43.75683" lon="6.96599">
        <ele>954.7263184</ele>
        <time>2011-04-13T14:28:54Z</time>
      </trkpt>
      <trkpt lat="43.75709" lon="6.96632">
        <ele>955.2070313</ele>
        <time>2011-04-13T14:29:02Z</time>
      </trkpt>
      <trkpt lat="43.75713" lon="6.96645">
        <ele>953.7651367</ele>
        <time>2011-04-13T14:29:05Z</time>
      </trkpt>
      <trkpt lat="43.75694" lon="6.96761">
        <ele>950.8811035</ele>
        <time>2011-04-13T14:29:23Z</time>
      </trkpt>
      <trkpt lat="43.75717" lon="6.9684">
        <ele>952.322998</ele>
        <time>2011-04-13T14:29:40Z</time>
      </trkpt>
      <trkpt lat="43.7568" lon="6.9691">
        <ele>949.9199219</ele>
        <time>2011-04-13T14:29:56Z</time>
      </trkpt>
      <trkpt lat="43.75606" lon="6.96975">
        <ele>948.9584961</ele>
        <time>2011-04-13T14:30:19Z</time>
      </trkpt>
      <trkpt lat="43.75621" lon="6.97026">
        <ele>950.4006348</ele>
        <time>2011-04-13T14:30:31Z</time>
      </trkpt>
      <trkpt lat="43.75623" lon="6.97051">
        <ele>947.5166016</ele>
        <time>2011-04-13T14:30:35Z</time>
      </trkpt>
      <trkpt lat="43.75522" lon="6.97178">
        <ele>944.1520996</ele>
        <time>2011-04-13T14:31:02Z</time>
      </trkpt>
      <trkpt lat="43.75481" lon="6.97198">
        <ele>947.0358887</ele>
        <time>2011-04-13T14:31:14Z</time>
      </trkpt>
      <trkpt lat="43.75419" lon="6.9721">
        <ele>946.5554199</ele>
        <time>2011-04-13T14:31:32Z</time>
      </trkpt>
      <trkpt lat="43.75313" lon="6.97262">
        <ele>942.7102051</ele>
        <time>2011-04-13T14:31:59Z</time>
      </trkpt>
      <trkpt lat="43.75112" lon="6.97277">
        <ele>946.5554199</ele>
        <time>2011-04-13T14:32:56Z</time>
      </trkpt>
      <trkpt lat="43.74918" lon="6.97258">
        <ele>955.2070313</ele>
        <time>2011-04-13T14:34:30Z</time>
      </trkpt>
      <trkpt lat="43.74926" lon="6.97273">
        <ele>954.2458496</ele>
        <time>2011-04-13T14:34:42Z</time>
      </trkpt>
      <trkpt lat="43.74837" lon="6.97292">
        <ele>956.6491699</ele>
        <time>2011-04-13T14:35:19Z</time>
      </trkpt>
      <trkpt lat="43.74757" lon="6.97385">
        <ele>966.262207</ele>
        <time>2011-04-13T14:36:15Z</time>
      </trkpt>
      <trkpt lat="43.74676" lon="6.97437">
        <ele>975.8754883</ele>
        <time>2011-04-13T14:37:16Z</time>
      </trkpt>
      <trkpt lat="43.7463" lon="6.9749">
        <ele>983.0852051</ele>
        <time>2011-04-13T14:37:56Z</time>
      </trkpt>
      <trkpt lat="43.74612" lon="6.97515">
        <ele>984.5273438</ele>
        <time>2011-04-13T14:38:14Z</time>
      </trkpt>
      <trkpt lat="43.74584" lon="6.97581">
        <ele>988.8535156</ele>
        <time>2011-04-13T14:38:51Z</time>
      </trkpt>
      <trkpt lat="43.74532" lon="6.97642">
        <ele>997.9858398</ele>
        <time>2011-04-13T14:40:04Z</time>
      </trkpt>
      <trkpt lat="43.7452" lon="6.9776">
        <ele>1009.5217285</ele>
        <time>2011-04-13T14:41:06Z</time>
      </trkpt>
      <trkpt lat="43.7449" lon="6.97807">
        <ele>1015.7702637</ele>
        <time>2011-04-13T14:41:50Z</time>
      </trkpt>
      <trkpt lat="43.7448" lon="6.97813">
        <ele>1019.1347656</ele>
        <time>2011-04-13T14:42:05Z</time>
      </trkpt>
      <trkpt lat="43.7448" lon="6.97791">
        <ele>1022.0187988</ele>
        <time>2011-04-13T14:42:23Z</time>
      </trkpt>
      <trkpt lat="43.74464" lon="6.97716">
        <ele>1032.1125488</ele>
        <time>2011-04-13T14:43:22Z</time>
      </trkpt>
      <trkpt lat="43.74453" lon="6.97725">
        <ele>1034.0351563</ele>
        <time>2011-04-13T14:43:42Z</time>
      </trkpt>
      <trkpt lat="43.74361" lon="6.97914">
        <ele>1051.3388672</ele>
        <time>2011-04-13T14:45:44Z</time>
      </trkpt>
      <trkpt lat="43.74328" lon="6.97908">
        <ele>1055.1843262</ele>
        <time>2011-04-13T14:46:11Z</time>
      </trkpt>
      <trkpt lat="43.74283" lon="6.97833">
        <ele>1061.9135742</ele>
        <time>2011-04-13T14:47:00Z</time>
      </trkpt>
      <trkpt lat="43.74225" lon="6.97787">
        <ele>1064.7973633</ele>
        <time>2011-04-13T14:47:43Z</time>
      </trkpt>
      <trkpt lat="43.74206" lon="6.97769">
        <ele>1065.7587891</ele>
        <time>2011-04-13T14:47:56Z</time>
      </trkpt>
      <trkpt lat="43.74166" lon="6.97792">
        <ele>1071.0461426</ele>
        <time>2011-04-13T14:48:28Z</time>
      </trkpt>
      <trkpt lat="43.74158" lon="6.97788">
        <ele>1071.0461426</ele>
        <time>2011-04-13T14:49:13Z</time>
      </trkpt>
      <trkpt lat="43.74122" lon="6.97712">
        <ele>1069.1235352</ele>
        <time>2011-04-13T14:49:49Z</time>
      </trkpt>
      <trkpt lat="43.74076" lon="6.97666">
        <ele>1066.2392578</ele>
        <time>2011-04-13T14:50:12Z</time>
      </trkpt>
      <trkpt lat="43.74016" lon="6.97569">
        <ele>1062.394043</ele>
        <time>2011-04-13T14:50:41Z</time>
      </trkpt>
      <trkpt lat="43.73992" lon="6.97494">
        <ele>1055.6650391</ele>
        <time>2011-04-13T14:51:05Z</time>
      </trkpt>
      <trkpt lat="43.73982" lon="6.97451">
        <ele>1048.9355469</ele>
        <time>2011-04-13T14:51:17Z</time>
      </trkpt>
      <trkpt lat="43.73942" lon="6.97363">
        <ele>1035.9577637</ele>
        <time>2011-04-13T14:51:41Z</time>
      </trkpt>
      <trkpt lat="43.73923" lon="6.9736">
        <ele>1034.0351563</ele>
        <time>2011-04-13T14:51:47Z</time>
      </trkpt>
      <trkpt lat="43.73897" lon="6.97397">
        <ele>1030.1899414</ele>
        <time>2011-04-13T14:52:00Z</time>
      </trkpt>
      <trkpt lat="43.73865" lon="6.97377">
        <ele>1026.8254395</ele>
        <time>2011-04-13T14:52:13Z</time>
      </trkpt>
      <trkpt lat="43.73798" lon="6.97424">
        <ele>1029.2285156</ele>
        <time>2011-04-13T14:52:37Z</time>
      </trkpt>
      <trkpt lat="43.73743" lon="6.97441">
        <ele>1028.267334</ele>
        <time>2011-04-13T14:52:55Z</time>
      </trkpt>
      <trkpt lat="43.73725" lon="6.97448">
        <ele>1027.3061523</ele>
        <time>2011-04-13T14:53:00Z</time>
      </trkpt>
      <trkpt lat="43.73644" lon="6.97466">
        <ele>1029.7092285</ele>
        <time>2011-04-13T14:53:27Z</time>
      </trkpt>
      <trkpt lat="43.73581" lon="6.97452">
        <ele>1031.6318359</ele>
        <time>2011-04-13T14:53:58Z</time>
      </trkpt>
      <trkpt lat="43.73548" lon="6.97418">
        <ele>1028.267334</ele>
        <time>2011-04-13T14:54:18Z</time>
      </trkpt>
      <trkpt lat="43.73525" lon="6.97357">
        <ele>1023.4609375</ele>
        <time>2011-04-13T14:54:37Z</time>
      </trkpt>
      <trkpt lat="43.73375" lon="6.97287">
        <ele>1025.8640137</ele>
        <time>2011-04-13T14:55:37Z</time>
      </trkpt>
      <trkpt lat="43.73341" lon="6.97273">
        <ele>1024.902832</ele>
        <time>2011-04-13T14:55:51Z</time>
      </trkpt>
      <trkpt lat="43.73283" lon="6.97307">
        <ele>1022.4995117</ele>
        <time>2011-04-13T14:56:13Z</time>
      </trkpt>
      <trkpt lat="43.73263" lon="6.97357">
        <ele>1021.5380859</ele>
        <time>2011-04-13T14:56:29Z</time>
      </trkpt>
      <trkpt lat="43.73131" lon="6.97437">
        <ele>1030.6706543</ele>
        <time>2011-04-13T14:57:56Z</time>
      </trkpt>
      <trkpt lat="43.73113" lon="6.9745">
        <ele>1031.1513672</ele>
        <time>2011-04-13T14:58:13Z</time>
      </trkpt>
      <trkpt lat="43.73099" lon="6.97435">
        <ele>1029.7092285</ele>
        <time>2011-04-13T14:59:13Z</time>
      </trkpt>
      <trkpt lat="43.73066" lon="6.9749">
        <ele>1026.3447266</ele>
        <time>2011-04-13T14:59:57Z</time>
      </trkpt>
      <trkpt lat="43.73077" lon="6.97502">
        <ele>1028.7480469</ele>
        <time>2011-04-13T15:00:16Z</time>
      </trkpt>
      <trkpt lat="43.73057" lon="6.97552">
        <ele>1029.7092285</ele>
        <time>2011-04-13T15:00:33Z</time>
      </trkpt>
      <trkpt lat="43.73031" lon="6.9763">
        <ele>1030.1899414</ele>
        <time>2011-04-13T15:01:03Z</time>
      </trkpt>
      <trkpt lat="43.73045" lon="6.97796">
        <ele>1027.7866211</ele>
        <time>2011-04-13T15:04:05Z</time>
      </trkpt>
      <trkpt lat="43.73065" lon="6.97835">
        <ele>1030.6706543</ele>
        <time>2011-04-13T15:06:30Z</time>
      </trkpt>
      <trkpt lat="43.73062" lon="6.97903">
        <ele>1016.7314453</ele>
        <time>2011-04-13T15:07:38Z</time>
      </trkpt>
      <trkpt lat="43.73012" lon="6.97968">
        <ele>999.9084473</ele>
        <time>2011-04-13T15:08:41Z</time>
      </trkpt>
      <trkpt lat="43.73016" lon="6.97906">
        <ele>989.3339844</ele>
        <time>2011-04-13T15:09:05Z</time>
      </trkpt>
      <trkpt lat="43.73004" lon="6.97928">
        <ele>984.5273438</ele>
        <time>2011-04-13T15:09:18Z</time>
      </trkpt>
      <trkpt lat="43.72992" lon="6.97886">
        <ele>976.8369141</ele>
        <time>2011-04-13T15:09:35Z</time>
      </trkpt>
      <trkpt lat="43.72976" lon="6.97929">
        <ele>968.1848145</ele>
        <time>2011-04-13T15:10:08Z</time>
      </trkpt>
      <trkpt lat="43.72968" lon="6.97889">
        <ele>962.4169922</ele>
        <time>2011-04-13T15:10:24Z</time>
      </trkpt>
      <trkpt lat="43.7293" lon="6.97875">
        <ele>947.9973145</ele>
        <time>2011-04-13T15:11:17Z</time>
      </trkpt>
      <trkpt lat="43.72929" lon="6.97902">
        <ele>942.2294922</ele>
        <time>2011-04-13T15:11:30Z</time>
      </trkpt>
      <trkpt lat="43.72915" lon="6.979">
        <ele>938.3840332</ele>
        <time>2011-04-13T15:11:40Z</time>
      </trkpt>
      <trkpt lat="43.72914" lon="6.97914">
        <ele>935.0195313</ele>
        <time>2011-04-13T15:11:49Z</time>
      </trkpt>
      <trkpt lat="43.7288" lon="6.97877">
        <ele>924.4450684</ele>
        <time>2011-04-13T15:12:07Z</time>
      </trkpt>
      <trkpt lat="43.72886" lon="6.97911">
        <ele>918.677002</ele>
        <time>2011-04-13T15:12:19Z</time>
      </trkpt>
      <trkpt lat="43.72883" lon="6.97911">
        <ele>916.2736816</ele>
        <time>2011-04-13T15:13:00Z</time>
      </trkpt>
      <trkpt lat="43.72826" lon="6.97834">
        <ele>902.3344727</ele>
        <time>2011-04-13T15:13:23Z</time>
      </trkpt>
      <trkpt lat="43.72768" lon="6.9779">
        <ele>889.3566895</ele>
        <time>2011-04-13T15:13:42Z</time>
      </trkpt>
      <trkpt lat="43.72662" lon="6.97638">
        <ele>869.6499023</ele>
        <time>2011-04-13T15:14:20Z</time>
      </trkpt>
      <trkpt lat="43.72633" lon="6.97622">
        <ele>863.4013672</ele>
        <time>2011-04-13T15:14:36Z</time>
      </trkpt>
      <trkpt lat="43.72613" lon="6.9753">
        <ele>859.0751953</ele>
        <time>2011-04-13T15:14:52Z</time>
      </trkpt>
      <trkpt lat="43.72547" lon="6.97432">
        <ele>844.1750488</ele>
        <time>2011-04-13T15:15:15Z</time>
      </trkpt>
      <trkpt lat="43.72532" lon="6.97446">
        <ele>843.6940918</ele>
        <time>2011-04-13T15:15:20Z</time>
      </trkpt>
      <trkpt lat="43.72499" lon="6.97517">
        <ele>835.5229492</ele>
        <time>2011-04-13T15:15:38Z</time>
      </trkpt>
      <trkpt lat="43.72514" lon="6.9754">
        <ele>830.7165527</ele>
        <time>2011-04-13T15:15:46Z</time>
      </trkpt>
      <trkpt lat="43.7244" lon="6.97599">
        <ele>817.7385254</ele>
        <time>2011-04-13T15:16:09Z</time>
      </trkpt>
      <trkpt lat="43.72424" lon="6.97578">
        <ele>812.9321289</ele>
        <time>2011-04-13T15:16:29Z</time>
      </trkpt>
      <trkpt lat="43.72417" lon="6.97613">
        <ele>807.1640625</ele>
        <time>2011-04-13T15:17:09Z</time>
      </trkpt>
      <trkpt lat="43.72377" lon="6.97519">
        <ele>793.7055664</ele>
        <time>2011-04-13T15:17:27Z</time>
      </trkpt>
      <trkpt lat="43.72347" lon="6.97477">
        <ele>785.5344238</ele>
        <time>2011-04-13T15:17:35Z</time>
      </trkpt>
      <trkpt lat="43.72297" lon="6.97508">
        <ele>775.9211426</ele>
        <time>2011-04-13T15:17:44Z</time>
      </trkpt>
      <trkpt lat="43.72241" lon="6.97496">
        <ele>774.9599609</ele>
        <time>2011-04-13T15:17:54Z</time>
      </trkpt>
      <trkpt lat="43.72228" lon="6.97499">
        <ele>773.5180664</ele>
        <time>2011-04-13T15:17:57Z</time>
      </trkpt>
      <trkpt lat="43.72179" lon="6.9744">
        <ele>759.5788574</ele>
        <time>2011-04-13T15:18:13Z</time>
      </trkpt>
      <trkpt lat="43.72186" lon="6.97412">
        <ele>758.1369629</ele>
        <time>2011-04-13T15:18:21Z</time>
      </trkpt>
      <trkpt lat="43.72172" lon="6.97411">
        <ele>756.6948242</ele>
        <time>2011-04-13T15:18:27Z</time>
      </trkpt>
      <trkpt lat="43.72143" lon="6.97475">
        <ele>752.8496094</ele>
        <time>2011-04-13T15:18:37Z</time>
      </trkpt>
      <trkpt lat="43.72177" lon="6.9757">
        <ele>746.1203613</ele>
        <time>2011-04-13T15:18:46Z</time>
      </trkpt>
      <trkpt lat="43.72172" lon="6.97622">
        <ele>741.7944336</ele>
        <time>2011-04-13T15:18:50Z</time>
      </trkpt>
      <trkpt lat="43.72132" lon="6.97698">
        <ele>740.3525391</ele>
        <time>2011-04-13T15:19:02Z</time>
      </trkpt>
      <trkpt lat="43.72129" lon="6.97711">
        <ele>738.9106445</ele>
        <time>2011-04-13T15:19:07Z</time>
      </trkpt>
      <trkpt lat="43.72143" lon="6.97721">
        <ele>738.9106445</ele>
        <time>2011-04-13T15:19:12Z</time>
      </trkpt>
      <trkpt lat="43.72141" lon="6.97778">
        <ele>737.9492188</ele>
        <time>2011-04-13T15:19:39Z</time>
      </trkpt>
    </trkseg>
  </trk>
</gpx>